Monday, December 5, 2016, 11:33 AM EST

KDYL, Doylestown Airport

Location: Doylestown, PA, United States Lat: 40.333
Local Time: 11:33 AM EST (16:33 GMT) Lon: -75.117
Time Zone: US/Eastern Elev: 393 ft

Show me the last for .
Show Decoded

2016-12-05 10:54 METAR KDYL 051554Z AUTO 27008KT 10SM OVC008 06/04 A3000 RMK AO2 CIG 006V012
                 SLP164 T00610044 =
2016-12-05 10:14 METAR KDYL 051514Z AUTO 25005KT 10SM BKN006 OVC011 06/04 A3001 RMK AO2 CIG
                 004V009 T00560044 =
2016-12-05 09:54 METAR KDYL 051454Z AUTO VRB04KT 10SM OVC004 06/04 A3001 RMK AO2 SLP167 60001
                 T00560044 53009 =
2016-12-05 08:54 METAR KDYL 051354Z AUTO 24005KT 10SM OVC004 05/04 A3000 RMK AO2 SLP162 T00500039
                 =
2016-12-05 08:52 METAR KDYL 051352Z AUTO 24007KT 10SM OVC004 05/04 A3000 RMK AO2 =
2016-12-05 07:54 METAR KDYL 051254Z AUTO 21004KT 10SM OVC005 04/04 A2998 RMK AO2 RAE05 SLP158
                 P0001 T00440039 =
2016-12-05 06:54 METAR KDYL 051154Z AUTO VRB05KT 6SM -RA BR BKN006 OVC011 04/03 A2999 RMK AO2
                 UPB15E21RAB21 CIG 002V008 SLP162 P0001 60022 70022 T00390033 10050 20022 55001 =
2016-12-05 06:33 METAR KDYL 051133Z AUTO 17004KT 6SM -RA BR BKN006 OVC010 03/03 A2998 RMK AO2
                 UPB15E21RAB21 CIG 003V008 P0001 T00330028 =
2016-12-05 05:54 METAR KDYL 051054Z AUTO 15003KT 5SM BR OVC004 03/02 A2999 RMK AO2 RAE23UPB44E48
                 CIG 003V009 SLP160 P0001 T00280022 TSNO =
2016-12-05 05:30 METAR KDYL 051030Z AUTO 16003KT 6SM BR OVC004 02/02 A3000 RMK AO2 RAE23 P0001
                 T00220017 TSNO =
2016-12-05 05:01 METAR KDYL 051001Z AUTO 00000KT 6SM -RA BR FEW003 BKN009 OVC015 02/02 A2999 RMK
                 AO2 P0000 T00220017 =
2016-12-05 04:54 METAR KDYL 050954Z AUTO 00000KT 7SM -RA FEW003 BKN012 OVC022 02/02 A3000 RMK AO2
                 RAE10B32UPB41E45SNB10E32 SLP163 P0003 T00220017 =
2016-12-05 04:36 METAR KDYL 050936Z AUTO 15003KT 8SM -RA FEW003 BKN012 OVC025 02/02 A3000 RMK AO2
                 RAE10B32SNB10E32 P0002 T00220017 =
2016-12-05 03:54 METAR KDYL 050854Z AUTO 17003KT 8SM -RA OVC006 02/02 A3003 RMK AO2 SLP172 P0009
                 60017 T00220017 58007 =
2016-12-05 02:54 METAR KDYL 050754Z AUTO 13004KT 8SM -RA OVC009 03/02 A3002 RMK AO2 PRESFR SLP172
                 P0006 T00330022 =
2016-12-05 02:42 METAR KDYL 050742Z AUTO 15004KT 8SM -RA OVC009 03/02 A3004 RMK AO2 P0005
                 T00330022 =
2016-12-05 02:14 METAR KDYL 050714Z AUTO VRB04KT 9SM -RA BKN013 OVC020 03/02 A3005 RMK AO2 P0002
                 T00330017 =
2016-12-05 01:54 METAR KDYL 050654Z AUTO 18007KT 10SM -RA BKN018 OVC026 04/02 A3005 RMK AO2 RAB06
                 SLP180 P0002 T00390017 =
2016-12-05 00:54 METAR KDYL 050554Z AUTO 15006KT 10SM SCT050 OVC070 05/M02 A3005 RMK AO2 SLP178
                 T00501022 10050 20039 58022 =
2016-12-04 23:54 METAR KDYL 050454Z AUTO 16004KT 10SM BKN090 OVC110 05/M02 A3009 RMK AO2 SLP193
                 T00501022 400890039 =
2016-12-04 22:54 METAR KDYL 050354Z AUTO 15004KT 10SM SCT120 05/M03 A3010 RMK AO2 SLP197
                 T00501028 =
2016-12-04 21:54 METAR KDYL 050254Z AUTO 00000KT 10SM FEW120 04/M02 A3011 RMK AO2 SLP202
                 T00441022 58018 =
2016-12-04 20:54 METAR KDYL 050154Z AUTO 00000KT 10SM CLR 04/M02 A3014 RMK AO2 SLP210 T00441017 =
2016-12-04 19:54 METAR KDYL 050054Z AUTO 00000KT 10SM CLR 05/M03 A3016 RMK AO2 SLP217 T00501028 =
2016-12-04 18:54 METAR KDYL 042354Z AUTO 00000KT 10SM CLR 04/M03 A3017 RMK AO2 SLP221 T00441028
                 10089 20039 56002 =
2016-12-04 17:54 METAR KDYL 042254Z AUTO 00000KT 10SM CLR 04/M03 A3017 RMK AO2 SLP219 T00441028 =
2016-12-04 16:54 METAR KDYL 042154Z AUTO 00000KT 10SM CLR 06/M03 A3017 RMK AO2 SLP221 T00561028 =
2016-12-04 15:54 METAR KDYL 042054Z AUTO 00000KT 10SM CLR 07/M04 A3017 RMK AO2 SLP221 T00721044
                 56009 =
2016-12-04 14:54 METAR KDYL 041954Z AUTO 35004KT 10SM CLR 08/M04 A3018 RMK AO2 SLP224 T00781039 =
2016-12-04 13:54 METAR KDYL 041854Z AUTO 35008KT 10SM CLR 09/M04 A3019 RMK AO2 SLP226 T00891039 =
2016-12-04 12:54 METAR KDYL 041754Z AUTO 36007KT 10SM CLR 08/M03 A3020 RMK AO2 SLP230 T00831033
                 10089 20039 58009 =
2016-12-04 11:54 METAR KDYL 041654Z AUTO 33008KT 10SM CLR 08/M03 A3021 RMK AO2 SLP232 T00831033
                 TSNO =

Support USWX by starting your Amazon purchase here.